createdAt,value
2018-04-25T05:29:26.183Z,26.8
2018-04-25T05:30:15.926Z,27.1
2018-04-25T05:31:06.017Z,27.4
2018-04-25T05:31:56.684Z,27.7
2018-04-25T05:32:45.834Z,28.1
2018-04-25T05:33:35.883Z,28.4
2018-04-25T05:34:26.280Z,28.8
2018-04-25T05:35:16.300Z,29.1
2018-04-25T05:36:06.660Z,29.4
2018-04-25T05:36:56.719Z,29.8
2018-04-25T05:37:46.769Z,30.1
2018-04-25T05:38:37.084Z,30.5
2018-04-25T05:39:26.635Z,30.9
2018-04-25T05:40:16.970Z,31.3
2018-04-25T05:41:07.030Z,31.7
2018-04-25T05:41:57.118Z,32.1
2018-04-25T05:42:47.167Z,32.4
2018-04-25T05:43:36.950Z,32.8
2018-04-25T05:44:27.003Z,33.1
2018-04-25T05:45:16.799Z,33.5
2018-04-25T05:46:07.920Z,34
2018-04-25T05:46:57.482Z,34.4
2018-04-25T05:47:47.538Z,34.8
2018-04-25T05:48:37.618Z,35.3
2018-04-25T05:49:27.114Z,35.7
2018-04-25T05:50:17.718Z,36.1
2018-04-25T05:51:07.796Z,36.5
2018-04-25T05:51:57.869Z,36.9
2018-04-25T05:52:47.933Z,37.4
2018-04-25T05:53:37.983Z,37.8
2018-04-25T05:54:28.075Z,38.3
2018-04-25T05:55:18.121Z,38.8
2018-04-25T05:56:08.194Z,39.2
2018-04-25T05:56:58.240Z,39.6
2018-04-25T05:57:48.396Z,40.1
2018-04-25T05:58:38.120Z,40.5
2018-04-25T05:59:28.180Z,40.9
2018-04-25T06:00:18.200Z,41.4
2018-04-25T06:01:08.636Z,41.8
2018-04-25T06:01:58.336Z,42.3
2018-04-25T06:02:48.676Z,42.6
2018-04-25T06:03:38.488Z,42.9
2018-04-25T06:04:28.817Z,43.4
2018-04-25T06:05:18.884Z,43.9
2018-04-25T06:06:08.688Z,44.4
2018-04-25T06:06:58.722Z,44.9
2018-04-25T06:07:48.789Z,45.3
2018-04-25T06:08:38.845Z,45.8
2018-04-25T06:09:29.208Z,46.2
2018-04-25T06:10:19.272Z,46.6
2018-04-25T06:11:09.056Z,47.1
2018-04-25T06:11:59.392Z,47.5
2018-04-25T06:12:49.455Z,47.9
2018-04-25T06:13:39.524Z,48.3
2018-04-25T06:14:29.579Z,48.8
2018-04-25T06:15:19.639Z,49.2
2018-04-25T06:16:09.427Z,49.7
2018-04-25T06:16:59.780Z,50.2
2018-04-25T06:17:49.571Z,50.7
2018-04-25T06:18:39.650Z,51.2
2018-04-25T06:19:29.984Z,51.6
2018-04-25T06:20:20.243Z,52.5
2018-04-25T06:21:10.099Z,53.8
2018-04-25T06:21:59.899Z,52.8
2018-04-25T06:22:50.258Z,50.3
2018-04-25T06:23:40.298Z,48.4
2018-04-25T06:24:30.359Z,46.6
2018-04-25T06:25:20.421Z,45.4
2018-04-25T06:26:10.251Z,44.8
2018-04-25T06:27:00.545Z,44.4
2018-04-25T06:27:50.328Z,44.3
2018-04-25T06:28:40.388Z,44.3
2018-04-25T06:29:30.765Z,44.6
2018-04-25T06:30:20.547Z,45.1
2018-04-25T06:31:10.881Z,45.7
2018-04-25T06:32:00.395Z,46.3
2018-04-25T06:32:51.010Z,46.9
2018-04-25T06:33:41.077Z,47.8
2018-04-25T06:34:31.153Z,48.6
2018-04-25T06:35:20.920Z,49.3
2018-04-25T06:36:10.714Z,50.1
2018-04-25T06:37:01.343Z,51
2018-04-25T06:37:50.829Z,53.1
2018-04-25T06:38:41.200Z,53.9
2018-04-25T06:39:31.654Z,51.1
2018-04-25T06:40:21.611Z,48.8
2018-04-25T06:41:11.382Z,46.9
2018-04-25T06:42:01.740Z,45.6
2018-04-25T06:42:51.509Z,45
2018-04-25T06:43:41.302Z,44.8
2018-04-25T06:44:31.347Z,44.8
2018-04-25T06:45:22.003Z,45.3
2018-04-25T06:46:12.066Z,46.1
2018-04-25T06:47:02.169Z,47.1
2018-04-25T06:47:51.963Z,48
2018-04-25T06:48:41.684Z,48.9
2018-04-25T06:49:32.367Z,50.1
2018-04-25T06:51:12.438Z,54
2018-04-25T06:52:02.516Z,52.8
2018-04-25T06:52:52.573Z,51.9
2018-04-25T06:53:42.648Z,50.9
2018-04-25T06:54:32.701Z,49.7
2018-04-25T06:55:22.211Z,48.4
2018-04-25T06:56:12.257Z,47.5
2018-04-25T06:57:02.343Z,47.4
2018-04-25T06:57:52.414Z,48.1
2018-04-25T06:58:42.758Z,49.1
2018-04-25T06:59:32.813Z,49.8
2018-04-25T07:00:23.157Z,50.3
2018-04-25T07:01:13.220Z,50.4
2018-04-25T07:02:03.012Z,50.5
2018-04-25T07:02:53.337Z,50.3
2018-04-25T07:03:43.141Z,50.1
2018-04-25T07:04:33.216Z,50.1
2018-04-25T07:05:23.547Z,50.1
2018-04-25T07:06:13.610Z,50.3
2018-04-25T07:07:03.687Z,50.6
2018-04-25T07:07:53.997Z,50.9
2018-04-25T07:08:43.804Z,51.1
2018-04-25T07:09:33.869Z,51.3
2018-04-25T07:10:23.928Z,51.4
2018-04-25T07:11:13.989Z,51.6
2018-04-25T07:12:04.080Z,51.8
2018-04-25T07:13:43.914Z,52
2018-04-25T07:14:34.274Z,52.1
2018-04-25T07:15:24.320Z,52.3
2018-04-25T07:16:14.386Z,52.4
2018-04-25T07:17:04.209Z,52.5
2018-04-25T07:17:54.540Z,52.7
2018-04-25T07:18:44.314Z,52.9
2018-04-25T07:19:34.198Z,53.1
2018-04-25T07:20:24.716Z,53.3
2018-04-25T07:21:14.805Z,53.4
2018-04-25T07:22:04.104Z,53.6
2018-04-25T07:22:54.913Z,53.7
2018-04-25T07:23:44.804Z,53.8
2018-04-25T07:24:34.776Z,53.9
2018-04-25T07:25:24.844Z,54.1
2018-04-25T07:26:15.191Z,54.3
2018-04-25T07:27:05.254Z,54.4
2018-04-25T07:27:54.263Z,54.5
2018-04-25T07:28:45.115Z,54.7
2018-04-25T07:29:35.744Z,54.9
2018-04-25T07:30:24.931Z,55
2018-04-25T07:31:15.583Z,55.1
2018-04-25T07:32:05.642Z,55.3
2018-04-25T07:32:55.698Z,55.4
2018-04-25T07:33:45.773Z,55.5
2018-04-25T07:34:35.271Z,55.6
2018-04-25T07:35:26.246Z,55.8
2018-04-25T07:36:15.667Z,56
2018-04-25T07:37:05.762Z,56.1
2018-04-25T07:37:56.089Z,56.3
2018-04-25T07:38:46.185Z,56.4
2018-04-25T07:39:36.221Z,56.6
2018-04-25T07:40:26.042Z,56.6
2018-04-25T07:41:16.368Z,56.8
2018-04-25T07:42:05.861Z,56.8
2018-04-25T07:42:56.550Z,56.9
2018-04-25T07:43:46.561Z,57.1
2018-04-25T07:44:36.607Z,57.1
2018-04-25T07:45:26.147Z,57.3
2018-04-25T07:46:16.765Z,57.4
2018-04-25T07:47:06.797Z,57.4
2018-04-25T07:47:56.589Z,57.6
2018-04-25T07:48:46.943Z,57.9
2018-04-25T07:49:36.734Z,58
2018-04-25T07:50:27.066Z,58.2
2018-04-25T07:51:16.850Z,58.3
2018-04-25T07:52:07.263Z,58.4
2018-04-25T07:52:56.795Z,58.5
2018-04-25T07:54:37.401Z,58.6
2018-04-25T07:55:27.485Z,58.8
2018-04-25T07:56:17.515Z,58.9
2018-04-25T07:57:07.320Z,59.1
2018-04-25T07:57:57.115Z,59.3
2018-04-25T07:58:47.740Z,59.4
2018-04-25T07:59:37.518Z,59.6
2018-04-25T08:00:27.580Z,59.7
2018-04-25T08:01:17.930Z,59.9
2018-04-25T08:02:08.005Z,59.9
2018-04-25T08:02:58.065Z,60.1
2018-04-25T08:03:48.138Z,60.2
2018-04-25T08:04:37.899Z,60.2
2018-04-25T08:05:28.251Z,60.3
2018-04-25T08:06:18.326Z,60.4
2018-04-25T08:07:08.389Z,60.4
2018-04-25T08:07:58.458Z,60.6
2018-04-25T08:08:48.220Z,60.8
2018-04-25T08:09:38.588Z,60.9
2018-04-25T08:10:28.645Z,61.1
2018-04-25T08:11:18.710Z,61
2018-04-25T08:12:08.570Z,60.9
2018-04-25T08:12:58.568Z,61.1
2018-04-25T08:13:48.900Z,61.3
2018-04-25T08:14:38.966Z,61.4
2018-04-25T08:15:28.751Z,61.5
2018-04-25T08:16:19.114Z,61.8
2018-04-25T08:17:08.877Z,61.9
2018-04-25T08:17:59.405Z,61.9
2018-04-25T08:18:49.022Z,61.8
2018-04-25T08:19:39.363Z,61.6
2018-04-25T08:20:28.876Z,61.6
2018-04-25T08:21:19.520Z,61.9
2018-04-25T08:22:09.288Z,62.1
2018-04-25T08:22:58.796Z,62.2
2018-04-25T08:23:49.629Z,62.4
2018-04-25T08:24:38.921Z,62.6
2018-04-25T08:25:29.832Z,62.8
2018-04-25T08:26:19.892Z,63
2018-04-25T08:27:09.118Z,63.2
2018-04-25T08:28:00.030Z,63.3
2018-04-25T08:28:50.090Z,63.4
2018-04-25T08:29:40.181Z,63.4
2018-04-25T08:30:30.219Z,63.6
2018-04-25T08:31:20.285Z,63.6
2018-04-25T08:32:10.356Z,63.6
2018-04-25T08:33:00.160Z,63.6
2018-04-25T08:33:50.483Z,63.8
2018-04-25T08:34:40.546Z,64.1
2018-04-25T08:35:30.668Z,64.3
2018-04-25T08:36:20.405Z,64.3
2018-04-25T08:37:10.754Z,64.4
2018-04-25T08:38:00.830Z,64.3
2018-04-25T08:38:50.599Z,64.2
2018-04-25T08:39:40.681Z,64.2
2018-04-25T08:40:30.682Z,64.2
2018-04-25T08:41:20.802Z,64.3
2018-04-25T08:42:10.863Z,64.4
2018-04-25T08:43:00.943Z,64.7
2018-04-25T08:43:51.292Z,64.9
2018-04-25T08:44:41.961Z,65
2018-04-25T08:45:30.855Z,65.1
2018-04-25T08:46:21.502Z,65.3
2018-04-25T08:47:10.994Z,65.5
2018-04-25T08:48:01.342Z,65.7
2018-04-25T08:48:51.669Z,65.9
2018-04-25T08:49:41.457Z,66
2018-04-25T08:50:31.812Z,66.1
2018-04-25T08:51:21.857Z,66.3
2018-04-25T08:52:11.934Z,66.4
2018-04-25T08:53:02.000Z,66.6
2018-04-25T08:53:52.056Z,66.8
2018-04-25T08:54:42.142Z,66.8
2018-04-25T08:55:32.205Z,66.8
2018-04-25T08:56:22.279Z,66.9
2018-04-25T08:57:12.322Z,67
2018-04-25T08:58:02.402Z,67.1
2018-04-25T08:58:52.487Z,67.2
2018-04-25T08:59:42.521Z,67.2
2018-04-25T09:00:32.045Z,67.3
2018-04-25T09:01:22.645Z,67.4
2018-04-25T09:02:12.746Z,67.4
2018-04-25T09:03:02.850Z,67.5
2018-04-25T09:03:52.883Z,67.7
2018-04-25T09:04:42.921Z,67.8
2018-04-25T09:05:32.999Z,67.6
2018-04-25T09:06:23.064Z,67.6
2018-04-25T09:07:13.129Z,67.6
2018-04-25T09:08:02.926Z,67.8
2018-04-25T09:08:52.980Z,68
2018-04-25T09:09:42.770Z,68.1
2018-04-25T09:10:33.113Z,68.1
2018-04-25T09:11:23.457Z,68.1
2018-04-25T09:12:13.607Z,68.1
2018-04-25T09:13:03.577Z,67.8
2018-04-25T09:13:53.394Z,67.8
2018-04-25T09:14:43.728Z,68
2018-04-25T09:15:34.088Z,68.3
2018-04-25T09:16:23.302Z,68.3
2018-04-25T09:17:13.935Z,68.2
2018-04-25T09:18:03.735Z,68.3
2018-04-25T09:18:53.199Z,68.4
2018-04-25T09:19:44.179Z,68.7
2018-04-25T09:20:33.936Z,68.8
2018-04-25T09:21:24.239Z,68.7
2018-04-25T09:22:14.319Z,68.7
2018-04-25T09:23:04.404Z,68.6
2018-04-25T09:23:53.914Z,68.6
2018-04-25T09:24:44.485Z,68.8
2018-04-25T09:25:34.599Z,69
2018-04-25T09:26:24.724Z,69.2
2018-04-25T09:27:14.429Z,69.3
2018-04-25T09:28:04.505Z,69.4
2018-04-25T09:28:54.559Z,69.5
2018-04-25T09:29:44.918Z,69.6
2018-04-25T09:30:34.991Z,69.6
2018-04-25T09:31:25.058Z,69.7
2018-04-25T09:32:15.104Z,69.7
2018-04-25T09:33:04.896Z,69.8
2018-04-25T09:33:55.243Z,69.9
2018-04-25T09:34:45.322Z,70.1
2018-04-25T09:35:34.819Z,70.3
2018-04-25T09:36:25.449Z,70.3
2018-04-25T09:37:15.518Z,70.4
2018-04-25T09:38:05.294Z,70.5
2018-04-25T09:38:55.349Z,70.6
2018-04-25T09:39:45.698Z,70.6
2018-04-25T09:40:35.763Z,70.7
2018-04-25T09:41:25.732Z,70.8
2018-04-25T09:42:15.623Z,70.8
2018-04-25T09:43:05.970Z,70.8
2018-04-25T09:43:55.745Z,70.8
2018-04-25T09:44:46.123Z,70.8
2018-04-25T09:45:36.186Z,70.8
2018-04-25T09:46:25.968Z,71
2018-04-25T09:47:16.028Z,71.3
2018-04-25T09:48:06.093Z,71.3
2018-04-25T09:48:56.485Z,71.4
2018-04-25T09:49:46.505Z,71.3
2018-04-25T09:50:36.333Z,71.2
2018-04-25T09:51:26.623Z,71.2
2018-04-25T09:52:16.433Z,71.3
2018-04-25T09:53:06.790Z,71.4
2018-04-25T09:53:56.827Z,71.5
2018-04-25T09:54:46.626Z,71.6
2018-04-25T09:55:36.701Z,71.8
2018-04-25T09:56:27.045Z,71.8
2018-04-25T09:57:17.095Z,71.8
2018-04-25T09:58:07.439Z,71.8
2018-04-25T09:58:57.223Z,71.8
2018-04-25T09:59:47.322Z,71.9
2018-04-25T10:00:37.362Z,72
2018-04-25T10:01:27.456Z,71.9
2018-04-25T10:02:17.540Z,72.1
2018-04-25T10:03:07.572Z,72.1
2018-04-25T10:03:56.857Z,72.3
2018-04-25T10:04:47.703Z,72.3
2018-04-25T10:05:37.742Z,72.4
2018-04-25T10:06:27.845Z,72.4
2018-04-25T10:07:17.322Z,72.4
2018-04-25T10:08:07.971Z,72.4
2018-04-25T10:08:58.020Z,72.4
2018-04-25T10:09:48.088Z,72.5
2018-04-25T10:10:38.163Z,72.5
2018-04-25T10:11:27.647Z,72.5
2018-04-25T10:12:18.274Z,72.6
2018-04-25T10:13:08.345Z,72.7
2018-04-25T10:13:58.411Z,72.8
2018-04-25T10:14:48.198Z,72.8
2018-04-25T10:15:38.539Z,72.8
2018-04-25T10:16:28.067Z,72.8
2018-04-25T10:17:18.884Z,73
2018-04-25T10:18:08.729Z,73.1
2018-04-25T10:18:58.532Z,73.2
2018-04-25T10:19:48.899Z,73.1
2018-04-25T10:20:38.960Z,72.9
2018-04-25T10:21:29.022Z,72.9
2018-04-25T10:22:18.801Z,73
2018-04-25T10:23:08.867Z,73.1
2018-04-25T10:23:59.371Z,73.1
2018-04-25T10:24:48.986Z,73.1
2018-04-25T10:25:39.566Z,73
2018-04-25T10:26:29.385Z,73.1
2018-04-25T10:27:19.478Z,73.2
2018-04-25T10:28:09.532Z,73.1
2018-04-25T10:28:59.595Z,72.9
2018-04-25T10:29:49.677Z,72.9
2018-04-25T10:30:39.749Z,72.9
2018-04-25T10:31:29.821Z,73
2018-04-25T10:32:19.617Z,73.1
2018-04-25T10:33:09.921Z,73.1
2018-04-25T10:33:59.742Z,73.1
2018-04-25T10:34:50.081Z,73.1
2018-04-25T10:35:40.124Z,73.2
2018-04-25T10:36:30.210Z,73.3
2018-04-25T10:37:20.279Z,73.4
2018-04-25T10:38:09.490Z,73.3
2018-04-25T10:39:00.689Z,73.4
2018-04-25T10:39:50.470Z,73.4
2018-04-25T10:40:40.538Z,73.4
2018-04-25T10:41:30.035Z,73.3
2018-04-25T10:42:20.665Z,73.4
2018-04-25T10:43:10.166Z,73.4
2018-04-25T10:44:00.796Z,73.4
2018-04-25T10:44:50.865Z,73.4
2018-04-25T10:45:40.631Z,73.5
2018-04-25T10:46:30.990Z,73.5
2018-04-25T10:47:21.066Z,73.6
2018-04-25T10:48:10.828Z,73.6
2018-04-25T10:49:00.928Z,73.6
2018-04-25T10:49:51.248Z,73.7
2018-04-25T10:50:41.355Z,73.6
2018-04-25T10:51:31.396Z,73.6
2018-04-25T10:52:21.173Z,73.4
2018-04-25T10:53:11.247Z,73.4
2018-04-25T10:54:01.041Z,73.5
2018-04-25T10:54:51.640Z,73.6
2018-04-25T10:55:41.443Z,73.6
2018-04-25T10:56:31.236Z,73.6
2018-04-25T10:57:21.866Z,73.6
2018-04-25T10:58:11.927Z,73.7
2018-04-25T10:59:02.068Z,73.7
2018-04-25T10:59:51.771Z,73.6
2018-04-25T11:00:42.129Z,73.6
2018-04-25T11:01:32.176Z,73.8
2018-04-25T11:02:22.543Z,73.7
2018-04-25T11:03:11.764Z,73.8
2018-04-25T11:04:02.387Z,73.9
2018-04-25T11:04:52.467Z,73.9
2018-04-25T11:05:42.311Z,73.9
2018-04-25T11:06:32.307Z,73.9
2018-04-25T11:07:22.984Z,74
2018-04-25T11:08:12.737Z,73.9
2018-04-25T11:09:02.766Z,73.9
2018-04-25T11:09:52.862Z,73.9
2018-04-25T11:10:42.911Z,73.6
2018-04-25T11:11:32.970Z,73.6
2018-04-25T11:12:23.053Z,73.7
2018-04-25T11:13:13.100Z,73.8
2018-04-25T11:14:03.188Z,73.8
2018-04-25T11:14:53.248Z,73.9
2018-04-25T11:15:43.314Z,73.8
2018-04-25T11:16:33.408Z,73.6
2018-04-25T11:17:23.165Z,73.7
2018-04-25T11:18:13.527Z,73.8
2018-04-25T11:19:03.571Z,73.7
2018-04-25T11:19:53.653Z,73.7
2018-04-25T11:20:43.694Z,73.6
2018-04-25T11:21:33.756Z,73.6
2018-04-25T11:22:23.269Z,73.8
2018-04-25T11:23:13.905Z,73.9
2018-04-25T11:24:03.955Z,73.9
2018-04-25T11:24:54.052Z,73.9
2018-04-25T11:25:43.811Z,73.8
2018-04-25T11:26:34.045Z,73.8
2018-04-25T11:27:24.213Z,73.7
2018-04-25T11:28:14.018Z,73.4
2018-04-25T11:29:04.384Z,73.3
2018-04-25T11:29:54.442Z,73.4
2018-04-25T11:30:44.487Z,73.4
2018-04-25T11:31:34.572Z,73.4
2018-04-25T11:32:24.642Z,73.5
2018-04-25T11:33:14.418Z,73.5
2018-04-25T11:34:04.774Z,73.5
2018-04-25T11:34:54.817Z,73.7
2018-04-25T11:35:44.892Z,73.7
2018-04-25T11:36:34.684Z,73.5
2018-04-25T11:37:25.031Z,73.3
2018-04-25T11:38:15.163Z,73.3
2018-04-25T11:39:05.168Z,73.2
2018-04-25T11:39:55.229Z,73.2
2018-04-25T11:40:45.295Z,73.3
2018-04-25T11:41:35.350Z,73.3
2018-04-25T11:42:25.141Z,73.2
2018-04-25T11:43:15.556Z,73.2
2018-04-25T11:44:05.276Z,73.3
2018-04-25T11:44:55.627Z,73.4
2018-04-25T11:45:45.691Z,73.3
2018-04-25T11:46:35.480Z,73.3
2018-04-25T11:47:25.554Z,73.2
2018-04-25T11:48:15.893Z,73.2
2018-04-25T11:49:05.971Z,73.1
2018-04-25T11:49:55.761Z,73
2018-04-25T11:50:46.093Z,72.9
2018-04-25T11:51:36.160Z,72.8
2018-04-25T11:52:25.946Z,72.9
2018-04-25T11:53:15.738Z,72.9
2018-04-25T11:54:06.393Z,73.1
2018-04-25T11:54:56.179Z,73.1
2018-04-25T11:55:46.205Z,73
2018-04-25T11:56:36.280Z,72.9
2018-04-25T11:57:26.377Z,72.9
2018-04-25T11:58:16.707Z,73.1
2018-04-25T11:59:06.202Z,73.1
2018-04-25T11:59:56.809Z,73.2
2018-04-25T12:00:46.918Z,73.2
2018-04-25T12:01:36.950Z,73.1
2018-04-25T12:02:27.015Z,73
2018-04-25T12:03:16.812Z,72.8
2018-04-25T12:04:06.610Z,72.6
2018-04-25T12:04:57.073Z,72.8
2018-04-25T12:05:47.296Z,72.6
2018-04-25T12:06:37.372Z,72.4
2018-04-25T12:07:27.418Z,72.1
2018-04-25T12:08:17.230Z,71.9
2018-04-25T12:09:07.537Z,71.9
2018-04-25T12:09:57.612Z,71.7
2018-04-25T12:10:47.681Z,71.3
2018-04-25T12:11:37.494Z,71.2
2018-04-25T12:12:27.517Z,71.2
2018-04-25T12:13:18.191Z,71
2018-04-25T12:14:08.008Z,70.9
2018-04-25T12:14:57.456Z,71.1
2018-04-25T12:15:47.808Z,71.3
2018-04-25T12:16:37.890Z,71.4
2018-04-25T12:17:27.954Z,71.5
2018-04-25T12:18:18.309Z,71.6
2018-04-25T12:19:07.777Z,71.4
2018-04-25T12:19:58.171Z,71.4
2018-04-25T12:20:48.205Z,71.4
2018-04-25T12:21:37.993Z,71.4
2018-04-25T12:22:28.327Z,71.1
2018-04-25T12:23:18.389Z,70.8
2018-04-25T12:24:08.778Z,70.6
2018-04-25T12:24:58.245Z,70.6
2018-04-25T12:25:48.610Z,70.6
2018-04-25T12:26:38.978Z,70.6
2018-04-25T12:27:29.007Z,70.6
2018-04-25T12:28:18.833Z,70.6
2018-04-25T12:29:08.589Z,70.6
2018-04-25T12:29:58.752Z,70.4
2018-04-25T12:30:49.015Z,70.4
2018-04-25T12:31:39.360Z,70.4
2018-04-25T12:32:29.142Z,70.5
2018-04-25T12:33:19.301Z,70.6
2018-04-25T12:34:09.291Z,70.6
2018-04-25T12:34:59.324Z,70.5
2018-04-25T12:35:49.890Z,70.4
2018-04-25T12:36:39.569Z,70.5
2018-04-25T12:37:29.541Z,70.4
2018-04-25T12:38:19.647Z,70.1
2018-04-25T12:39:09.379Z,69.9
2018-04-25T12:39:59.450Z,69.8
2018-04-25T12:40:50.086Z,69.6
2018-04-25T12:41:40.043Z,69.4
2018-04-25T12:42:29.652Z,69.4
2018-04-25T12:43:20.309Z,69.4
2018-04-25T12:44:10.378Z,69.5
2018-04-25T12:45:00.137Z,69.6
2018-04-25T12:45:50.210Z,69.6
2018-04-25T12:46:40.253Z,69.5
2018-04-25T12:47:30.618Z,69.4
2018-04-25T12:48:20.404Z,69.3
2018-04-25T12:49:10.762Z,69.1
2018-04-25T12:50:00.814Z,69.1
2018-04-25T12:50:50.868Z,68.5
2018-04-25T12:51:40.383Z,67.6
2018-04-25T12:52:30.724Z,66.8
2018-04-25T12:53:21.074Z,65.8
2018-04-25T12:54:11.129Z,65.1
2018-04-25T12:55:01.223Z,65.1
2018-04-25T12:55:51.274Z,65.6
2018-04-25T12:56:41.330Z,65.4
2018-04-25T12:57:31.477Z,64.5
2018-04-25T12:58:20.909Z,63.3
2018-04-25T12:59:11.537Z,61.9
2018-04-25T13:00:00.749Z,60.7
2018-04-25T13:00:51.669Z,59.9
2018-04-25T13:01:42.079Z,59.3
2018-04-25T13:02:31.813Z,58.8
2018-04-25T13:03:21.601Z,58.4
2018-04-25T13:04:11.647Z,58
2018-04-25T13:05:01.727Z,57.5
2018-04-25T13:05:52.060Z,57.1
2018-04-25T13:06:42.124Z,56.8
2018-04-25T13:07:31.917Z,57.1
2018-04-25T13:09:12.313Z,58.5
2018-04-25T13:10:02.382Z,59.4
2018-04-25T13:10:52.443Z,60.2
2018-04-25T13:11:42.523Z,60.6
2018-04-25T13:12:32.568Z,60.7
2018-04-25T13:13:22.646Z,60.6
2018-04-25T13:14:12.722Z,60.4
2018-04-25T13:15:02.338Z,60.3
2018-04-25T13:15:52.840Z,60.1
2018-04-25T13:16:42.640Z,59.9
2018-04-25T13:17:32.713Z,59.5
2018-04-25T13:18:23.036Z,59.2
2018-04-25T13:19:12.825Z,58.8
2018-04-25T13:20:02.902Z,58.4
2018-04-25T13:20:52.960Z,58.1
2018-04-25T13:21:43.045Z,58.2
2018-04-25T13:22:33.094Z,58.4
2018-04-25T13:23:23.519Z,58.7
2018-04-25T13:24:13.487Z,59
2018-04-25T13:25:03.572Z,59.5
2018-04-25T13:25:53.633Z,60.3
2018-04-25T13:26:43.420Z,61.2
2018-04-25T13:27:33.780Z,61.9
2018-04-25T13:28:23.849Z,62.5
2018-04-25T13:29:13.904Z,63.1
2018-04-25T13:30:03.708Z,63.4
2018-04-25T13:30:53.760Z,63.8
2018-04-25T13:31:44.123Z,64.1
2018-04-25T13:32:34.157Z,64.4
2018-04-25T13:33:24.008Z,64.7
2018-04-25T13:34:14.295Z,65
2018-04-25T13:35:04.379Z,65.8
2018-04-25T13:35:54.431Z,67.1
2018-04-25T13:36:44.220Z,66
2018-04-25T13:37:34.543Z,64.1
2018-04-25T13:38:24.079Z,62.1
2018-04-25T13:39:14.740Z,60.1
2018-04-25T13:40:04.476Z,59
2018-04-25T13:40:54.829Z,58.4
2018-04-25T13:41:44.893Z,57.9
2018-04-25T13:42:34.664Z,57.6
2018-04-25T13:43:24.766Z,57.4
2018-04-25T13:44:15.072Z,57.4
2018-04-25T13:45:05.148Z,57.4
2018-04-25T13:45:55.199Z,57.8
2018-04-25T13:46:45.628Z,58.1
2018-04-25T13:48:25.383Z,59
2018-04-25T13:49:15.455Z,59.5
2018-04-25T13:50:05.264Z,59.9
2018-04-25T13:50:55.320Z,60.2
2018-04-25T13:51:45.658Z,60.4
2018-04-25T13:52:35.984Z,60.8
2018-04-25T13:53:25.792Z,61
2018-04-25T13:54:15.853Z,61.3
2018-04-25T13:55:05.632Z,61.6
2018-04-25T13:55:55.714Z,61.6
2018-04-25T13:56:46.066Z,61.5
2018-04-25T13:57:36.125Z,61.6
2018-04-25T13:58:26.197Z,61.8
2018-04-25T13:59:16.282Z,61.9
2018-04-25T14:00:06.368Z,61.8
2018-04-25T14:00:56.314Z,61.7
2018-04-25T14:01:46.161Z,61.7
2018-04-25T14:02:35.964Z,61.6
2018-04-25T14:03:26.305Z,61.6
2018-04-25T14:04:16.403Z,61.4
2018-04-25T14:05:06.724Z,61.3
2018-04-25T14:05:56.780Z,61.1
2018-04-25T14:06:46.857Z,61
2018-04-25T14:07:36.929Z,60.9
2018-04-25T14:08:26.970Z,60.9
2018-04-25T14:09:17.066Z,60.7
2018-04-25T14:10:07.132Z,60.4
2018-04-25T14:10:57.182Z,60.1
2018-04-25T14:11:47.256Z,59.8
2018-04-25T14:12:37.300Z,59.5
2018-04-25T14:13:27.377Z,59.2
2018-04-25T14:14:17.438Z,58.8
2018-04-25T14:15:07.527Z,58.2
2018-04-25T14:16:47.367Z,57.4
2018-04-25T14:17:37.440Z,56.9
2018-04-25T14:18:27.777Z,56.4
2018-04-25T14:19:17.831Z,56.2
2018-04-25T14:20:07.894Z,55.9
2018-04-25T14:20:57.496Z,55.7
2018-04-25T14:21:47.791Z,55.3
2018-04-25T14:22:38.103Z,55.1
2018-04-25T14:23:28.142Z,54.9
2018-04-25T14:24:18.211Z,54.9
2018-04-25T14:25:08.284Z,54.9
2018-04-25T14:25:58.344Z,54.9
2018-04-25T14:26:47.946Z,54.9
2018-04-25T14:27:38.207Z,55
2018-04-25T14:28:27.982Z,54.9
2018-04-25T14:29:18.321Z,54.9
2018-04-25T14:30:08.486Z,54.9
2018-04-25T14:30:58.728Z,54.9
2018-04-25T14:31:48.803Z,54.8
2018-04-25T14:32:38.875Z,54.7
2018-04-25T14:33:28.939Z,54.6
2018-04-25T14:34:19.003Z,54.5
2018-04-25T14:35:09.080Z,54.3
2018-04-25T14:35:59.125Z,54.1
2018-04-25T14:36:49.195Z,54.1
2018-04-25T14:37:39.254Z,54.2
2018-04-25T14:38:29.054Z,54.1
2018-04-25T14:39:19.387Z,53.9
2018-04-25T14:40:09.185Z,53.9
2018-04-25T14:40:59.054Z,53.7
2018-04-25T14:41:49.609Z,53.4
2018-04-25T14:42:39.381Z,53.3
2018-04-25T14:43:28.983Z,52.9
2018-04-25T14:44:19.804Z,52.7
2018-04-25T14:45:09.593Z,52.6
2018-04-25T14:45:59.912Z,52.4
2018-04-25T14:46:49.982Z,52.2
2018-04-25T14:48:30.393Z,51.9
2018-04-25T14:49:19.920Z,51.8
2018-04-25T14:50:09.675Z,51.7
2018-04-25T14:51:00.050Z,51.4
2018-04-25T14:51:50.380Z,51.1
2018-04-25T14:52:40.451Z,50.8
2018-04-25T14:53:30.505Z,50.6
2018-04-25T14:54:20.567Z,50.4
2018-04-25T14:55:10.361Z,50.1
2018-04-25T14:56:00.763Z,49.9
2018-04-25T14:56:50.752Z,49.8
2018-04-25T14:57:40.842Z,49.4
2018-04-25T14:58:30.886Z,49.2
2018-04-25T14:59:20.979Z,49
2018-04-25T15:00:11.011Z,48.8
2018-04-25T15:01:00.633Z,48.6
2018-04-25T15:01:51.161Z,48.3
2018-04-25T15:02:40.935Z,48
2018-04-25T15:06:01.481Z,85
2018-04-25T15:06:51.557Z,46.6
2018-04-25T15:07:41.621Z,46.3
2018-04-25T15:08:31.400Z,46.1
2018-04-25T15:09:21.749Z,45.9
2018-04-25T15:10:11.522Z,45.6
2018-04-25T15:11:01.892Z,45.4
2018-04-25T15:11:51.976Z,45.1
2018-04-25T15:12:41.442Z,45
2018-04-25T15:13:31.784Z,44.8
2018-04-25T15:14:22.133Z,44.6
2018-04-25T15:15:11.985Z,44.4
2018-04-25T15:16:02.265Z,44.2
2018-04-25T15:16:52.330Z,43.9
2018-04-25T15:17:42.118Z,43.8
2018-04-25T15:18:32.192Z,43.6
2018-04-25T15:19:22.229Z,43.4
2018-04-25T15:20:12.597Z,43.1
2018-04-25T15:21:02.101Z,42.9
2018-04-25T15:21:52.712Z,42.8
2018-04-25T15:22:42.489Z,42.6
2018-04-25T15:23:32.827Z,42.6
2018-04-25T15:24:22.931Z,42.5
2018-04-25T15:25:12.986Z,42.3
2018-04-25T15:26:02.496Z,42.1
2018-04-25T15:26:53.101Z,41.9
2018-04-25T15:27:43.160Z,41.8
2018-04-25T15:28:32.937Z,41.8
2018-04-25T15:29:23.277Z,41.8
2018-04-25T15:30:13.349Z,41.6
2018-04-25T15:31:03.218Z,41.6
2018-04-25T15:31:53.501Z,41.4
2018-04-25T15:32:43.016Z,41.3
2018-04-25T15:33:33.080Z,41.1
2018-04-25T15:34:23.403Z,41
2018-04-25T15:35:13.486Z,40.9
2018-04-25T15:36:03.820Z,40.8
2018-04-25T15:36:53.868Z,40.7
2018-04-25T15:37:43.946Z,40.6
2018-04-25T15:38:34.032Z,40.4
2018-04-25T15:39:23.508Z,40.3
2018-04-25T15:40:13.859Z,40.2
2018-04-25T15:41:04.234Z,40.1
2018-04-25T15:41:53.715Z,40.2
2018-04-25T15:42:44.359Z,40.1
2018-04-25T15:43:34.141Z,40.1
2018-04-25T15:44:24.468Z,40
2018-04-25T15:45:14.254Z,39.9
2018-04-25T15:46:04.604Z,39.9
2018-04-25T15:46:54.383Z,39.8
2018-04-25T15:47:44.751Z,39.5
2018-04-25T15:48:34.789Z,39.3
2018-04-25T15:49:24.869Z,39.2
2018-04-25T15:50:14.939Z,39.1
2018-04-25T15:51:05.003Z,39.1
2018-04-25T15:51:55.059Z,38.9
2018-04-25T15:52:45.120Z,38.8
2018-04-25T15:53:35.171Z,38.6
2018-04-25T15:54:25.258Z,38.6
2018-04-25T15:55:15.317Z,38.4
2018-04-25T15:56:05.089Z,38.2
2018-04-25T15:56:55.144Z,37.9
2018-04-25T15:57:45.493Z,37.8
2018-04-25T15:58:35.559Z,37.6
2018-04-25T15:59:25.621Z,37.4
2018-04-25T16:00:15.706Z,37.3
2018-04-25T16:01:05.760Z,37.2
2018-04-25T16:01:55.566Z,37.1
2018-04-25T16:02:45.897Z,36.9
2018-04-25T16:03:35.736Z,36.8
2018-04-25T16:04:25.755Z,36.7
2018-04-25T16:05:16.080Z,36.5
2018-04-25T16:06:06.160Z,36.3
2018-04-25T16:06:55.942Z,36.1
2018-04-25T16:07:46.295Z,36
2018-04-25T16:08:35.770Z,35.9
2018-04-25T16:09:26.136Z,35.7
2018-04-25T16:10:16.467Z,35.6
2018-04-25T16:11:06.728Z,35.4
2018-04-25T16:11:56.322Z,35.3
2018-04-25T16:12:46.391Z,35.1
2018-04-25T16:13:36.738Z,34.9
2018-04-25T16:14:26.515Z,34.7
2018-04-25T16:15:16.887Z,34.6
2018-04-25T16:16:06.676Z,34.4
2018-04-25T16:16:57.006Z,34.3
2018-04-25T16:17:47.065Z,34.2
2018-04-25T16:18:37.131Z,34.1
2018-04-25T16:19:27.187Z,33.9
2018-04-25T16:20:17.254Z,33.9
2018-04-25T16:21:07.284Z,33.8
2018-04-25T16:21:57.111Z,33.6
2018-04-25T16:22:47.720Z,33.4
2018-04-25T16:23:37.245Z,33.3
2018-04-25T16:24:27.573Z,33.2
2018-04-25T16:25:17.706Z,33.1
2018-04-25T16:26:07.142Z,32.8
2018-04-25T16:26:57.206Z,32.7
2018-04-25T16:27:47.855Z,32.6
2018-04-25T16:28:37.966Z,32.4
2018-04-25T16:29:27.966Z,32.3
2018-04-25T16:30:18.093Z,32.2
2018-04-25T16:31:07.863Z,32.1
2018-04-25T16:31:58.182Z,32
2018-04-25T16:32:47.932Z,31.9
2018-04-25T16:33:38.299Z,31.8
2018-04-25T16:34:28.084Z,31.6
2018-04-25T16:35:18.410Z,31.5
2018-04-25T16:36:08.527Z,31.4
2018-04-25T16:36:58.553Z,31.3
2018-04-25T16:37:48.610Z,31.2
2018-04-25T16:38:39.211Z,31.1
2018-04-25T16:39:28.740Z,30.9
2018-04-25T16:40:18.526Z,30.9
2018-04-25T16:41:08.867Z,30.8
2018-04-25T16:41:58.913Z,30.6
2018-04-25T16:42:48.434Z,30.5
2018-04-25T16:43:39.044Z,30.4
2018-04-25T16:44:29.181Z,30.3
2018-04-25T16:45:19.171Z,30.2
2018-04-25T16:46:08.976Z,30.1